Flagstaff, Arizona
Current Conditions -  °F | °C
As of 9:57 PM on Friday 24 Oct 2014 (Local Time) from KFLG Reporting Station
Clear Clear  
Wind Chill: 42°   Ceiling: Unl
Heat Index: 42°   Visibility: 10mi
Dew Point: 29°   Wind: 0mph
Humidity: 60%   Direction: NA
Pressure: 30.39"   Gusts: NA
Location:  35.2°N, 111.65°W
Report Text: KFLG 250457Z AUTO 00000KT 10SM CLR 06/M02 A3039 RMK AO2 SLP220 T00561017 TSNO
Loading
Personal Weather Stations






























Interactive Weather Map New forecast layout! Learn more

10-Day Weather Forecast

Advertisements
Track Severe Weather on mobile